createdAt,value
2018-09-05T00:00:10.531Z,94.50
2018-09-05T00:02:39.530Z,94.55
2018-09-05T00:05:08.870Z,94.82
2018-09-05T00:07:37.771Z,94.47
2018-09-05T00:10:06.758Z,95.04
2018-09-05T00:12:35.917Z,94.49
2018-09-05T00:15:04.721Z,94.32
2018-09-05T00:17:33.933Z,94.96
2018-09-05T00:20:03.204Z,95.54
2018-09-05T00:22:32.297Z,95.30
2018-09-05T00:25:01.118Z,95.68
2018-09-05T00:27:59.420Z,95.24
2018-09-05T00:30:31.728Z,95.70
2018-09-05T00:33:01.118Z,96.12
2018-09-05T00:35:30.178Z,96.51
2018-09-05T00:37:58.951Z,96.02
2018-09-05T00:40:28.284Z,95.72
2018-09-05T00:42:57.027Z,96.09
2018-09-05T00:45:26.714Z,95.30
2018-09-05T00:47:55.535Z,95.36
2018-09-05T00:50:24.551Z,95.05
2018-09-05T00:52:53.571Z,95.07
2018-09-05T00:55:22.335Z,95.40
2018-09-05T00:57:51.164Z,95.75
2018-09-05T01:00:21.001Z,95.52
2018-09-05T01:02:50.768Z,95.57
2018-09-05T01:05:20.538Z,96.21
2018-09-05T01:07:50.308Z,96.60
2018-09-05T01:10:20.078Z,95.84
2018-09-05T01:12:49.280Z,96.03
2018-09-05T01:15:18.419Z,95.56
2018-09-05T01:17:47.593Z,96.03
2018-09-05T01:20:16.950Z,96.15
2018-09-05T01:22:45.928Z,96.54
2018-09-05T01:25:15.039Z,96.24
2018-09-05T01:27:44.336Z,96.29
2018-09-05T01:30:14.163Z,95.44
2018-09-05T01:32:42.938Z,95.84
2018-09-05T01:35:11.741Z,96.18
2018-09-05T01:37:41.035Z,96.03
2018-09-05T01:40:16.683Z,96.08
2018-09-05T01:42:45.547Z,95.52
2018-09-05T01:45:14.616Z,95.96
2018-09-05T01:47:43.770Z,95.96
2018-09-05T01:50:12.602Z,95.83
2018-09-05T01:52:41.388Z,95.97
2018-09-05T01:55:10.185Z,96.17
2018-09-05T01:57:38.929Z,95.84
2018-09-05T02:00:11.767Z,95.78
2018-09-05T02:02:40.904Z,95.91
2018-09-05T02:05:09.927Z,95.80
2018-09-05T02:07:38.674Z,96.42
2018-09-05T02:10:07.436Z,95.49
2018-09-05T02:12:36.745Z,96.08
2018-09-05T02:15:05.818Z,96.02
2018-09-05T02:17:35.354Z,95.86
2018-09-05T02:20:04.744Z,95.24
2018-09-05T02:22:34.128Z,95.95
2018-09-05T02:25:02.938Z,95.68
2018-09-05T02:27:32.043Z,95.80
2018-09-05T02:30:01.131Z,96.09
2018-09-05T02:32:29.927Z,95.60
2018-09-05T02:34:58.726Z,96.02
2018-09-05T02:37:28.103Z,95.87
2018-09-05T02:39:56.887Z,95.76
2018-09-05T02:42:25.687Z,96.10
2018-09-05T02:44:55.118Z,96.10
2018-09-05T02:47:24.909Z,95.87
2018-09-05T02:49:55.252Z,95.78
2018-09-05T02:52:24.451Z,95.69
2018-09-05T02:54:53.325Z,95.50
2018-09-05T02:57:22.287Z,95.58
2018-09-05T02:59:51.353Z,95.62
2018-09-05T03:02:20.176Z,95.76
2018-09-05T03:04:49.257Z,96.25
2018-09-05T03:07:18.007Z,96.17
2018-09-05T03:09:47.068Z,96.15
2018-09-05T03:12:21.033Z,95.83
2018-09-05T03:14:51.058Z,96.13
2018-09-05T03:17:20.427Z,96.91
2018-09-05T03:19:49.158Z,96.82
2018-09-05T03:22:17.913Z,96.83
2018-09-05T03:24:46.946Z,96.72
2018-09-05T03:27:16.439Z,96.85
2018-09-05T03:29:45.238Z,96.60
2018-09-05T03:32:15.036Z,96.88
2018-09-05T03:34:43.831Z,96.88
2018-09-05T03:37:12.674Z,97.28
2018-09-05T03:39:42.071Z,96.99
2018-09-05T03:42:10.856Z,97.23
2018-09-05T03:44:39.614Z,97.30
2018-09-05T03:47:09.039Z,96.97
2018-09-05T03:49:38.052Z,96.93
2018-09-05T03:52:07.158Z,97.03
2018-09-05T03:54:35.963Z,97.70
2018-09-05T03:57:04.704Z,98.06
2018-09-05T03:59:33.549Z,98.39
2018-09-05T04:02:02.360Z,98.08
2018-09-05T04:04:31.349Z,98.20
2018-09-05T04:07:00.402Z,98.18
2018-09-05T04:09:29.110Z,98.18
2018-09-05T04:11:57.994Z,97.72
2018-09-05T04:14:27.035Z,97.83
2018-09-05T04:16:55.873Z,98.05
2018-09-05T04:19:24.696Z,97.80
2018-09-05T04:21:53.847Z,97.91
2018-09-05T04:24:22.593Z,97.79
2018-09-05T04:26:51.634Z,97.64
2018-09-05T04:29:20.960Z,97.36
2018-09-05T04:31:49.816Z,97.81
2018-09-05T04:34:18.647Z,98.01
2018-09-05T04:36:47.809Z,97.71
2018-09-05T04:39:16.825Z,98.38
2018-09-05T04:41:45.684Z,98.89
2018-09-05T04:44:14.484Z,98.88
2018-09-05T04:46:47.742Z,98.24
2018-09-05T04:49:17.931Z,98.22
2018-09-05T04:51:46.678Z,98.87
2018-09-05T04:54:15.502Z,98.76
2018-09-05T04:56:44.642Z,98.91
2018-09-05T04:59:14.106Z,98.91
2018-09-05T05:01:43.695Z,99.24
2018-09-05T05:04:12.782Z,99.15
2018-09-05T05:06:42.069Z,98.77
2018-09-05T05:09:12.615Z,98.82
2018-09-05T05:11:42.092Z,99.15
2018-09-05T05:14:11.929Z,99.43
2018-09-05T05:16:40.911Z,99.59
2018-09-05T05:19:09.655Z,99.09
2018-09-05T05:21:38.770Z,99.49
2018-09-05T05:24:08.018Z,100.00
2018-09-05T05:26:37.210Z,100.00
2018-09-05T05:29:05.939Z,100.00
2018-09-05T05:31:35.133Z,100.00
2018-09-05T05:34:04.164Z,100.00
2018-09-05T05:36:32.886Z,100.00
2018-09-05T05:39:02.606Z,100.00
2018-09-05T05:41:34.331Z,100.00
2018-09-05T05:44:03.487Z,100.00
2018-09-05T05:46:32.442Z,100.00
2018-09-05T05:49:01.171Z,100.00
2018-09-05T05:51:29.893Z,100.00
2018-09-05T05:53:58.575Z,100.00
2018-09-05T05:56:27.601Z,100.00
2018-09-05T05:58:56.858Z,100.00
2018-09-05T06:01:25.937Z,100.00
2018-09-05T06:03:54.664Z,100.00
2018-09-05T06:06:23.431Z,100.00
2018-09-05T06:08:52.654Z,100.00
2018-09-05T06:11:21.457Z,100.00
2018-09-05T06:13:50.519Z,100.00
2018-09-05T06:16:19.463Z,100.00
2018-09-05T06:18:48.239Z,100.00
2018-09-05T06:21:17.073Z,100.00
2018-09-05T06:23:46.463Z,100.00
2018-09-05T06:26:15.243Z,100.00
2018-09-05T06:28:44.286Z,100.00
2018-09-05T06:31:13.247Z,100.00
2018-09-05T06:33:41.820Z,100.00
2018-09-05T06:36:10.590Z,100.00
2018-09-05T06:38:39.602Z,100.00
2018-09-05T06:41:09.142Z,100.00
2018-09-05T06:43:37.866Z,99.95
2018-09-05T06:46:06.896Z,99.83
2018-09-05T06:48:37.362Z,99.73
2018-09-05T06:51:07.381Z,99.24
2018-09-05T06:53:38.233Z,98.84
2018-09-05T06:56:06.965Z,98.97
2018-09-05T06:58:37.319Z,98.17
2018-09-05T07:01:06.133Z,97.72
2018-09-05T07:03:35.335Z,97.90
2018-09-05T07:06:04.088Z,97.07
2018-09-05T07:08:33.080Z,96.70
2018-09-05T07:11:01.887Z,95.56
2018-09-05T07:13:31.008Z,95.35
2018-09-05T07:15:59.882Z,93.58
2018-09-05T07:18:29.041Z,93.71
2018-09-05T07:21:05.684Z,94.11
2018-09-05T07:23:27.232Z,92.82
2018-09-05T07:25:55.981Z,90.98
2018-09-05T07:28:24.800Z,90.46
2018-09-05T07:30:53.652Z,90.28
2018-09-05T07:33:22.280Z,89.88
2018-09-05T07:35:51.367Z,90.55
2018-09-05T07:38:20.391Z,88.76
2018-09-05T07:40:49.179Z,88.97
2018-09-05T07:43:18.206Z,88.34
2018-09-05T07:45:47.231Z,88.47
2018-09-05T07:48:16.370Z,87.11
2018-09-05T07:50:45.199Z,87.54
2018-09-05T07:53:13.863Z,87.19
2018-09-05T07:55:42.843Z,84.31
2018-09-05T07:58:11.599Z,84.72
2018-09-05T08:00:40.573Z,83.20
2018-09-05T08:03:09.776Z,83.38
2018-09-05T08:05:38.527Z,83.11
2018-09-05T08:08:07.248Z,82.66
2018-09-05T08:10:36.343Z,82.23
2018-09-05T08:13:05.587Z,81.69
2018-09-05T08:15:34.703Z,80.69
2018-09-05T08:18:03.999Z,79.23
2018-09-05T08:20:32.712Z,79.01
2018-09-05T08:23:01.741Z,78.08
2018-09-05T08:25:30.785Z,77.92
2018-09-05T08:27:59.479Z,77.93
2018-09-05T08:30:28.285Z,77.44
2018-09-05T08:32:57.220Z,76.22
2018-09-05T08:35:26.213Z,75.88
2018-09-05T08:37:55.370Z,74.39
2018-09-05T08:40:24.694Z,75.14
2018-09-05T08:42:53.750Z,73.45
2018-09-05T08:45:22.693Z,73.09
2018-09-05T08:47:51.633Z,73.44
2018-09-05T08:50:20.559Z,72.80
2018-09-05T08:52:49.570Z,71.96
2018-09-05T08:55:18.448Z,71.46
2018-09-05T08:57:47.685Z,68.70
2018-09-05T09:00:16.374Z,68.47
2018-09-05T09:02:45.134Z,68.52
2018-09-05T09:05:14.123Z,67.76
2018-09-05T09:07:43.190Z,68.94
2018-09-05T09:10:12.521Z,67.31
2018-09-05T09:12:41.837Z,65.79
2018-09-05T09:15:10.698Z,65.65
2018-09-05T09:17:39.424Z,63.92
2018-09-05T09:20:08.254Z,64.35
2018-09-05T09:22:37.634Z,64.51
2018-09-05T09:25:06.354Z,62.26
2018-09-05T09:27:35.177Z,62.15
2018-09-05T09:30:04.449Z,63.29
2018-09-05T09:32:33.468Z,60.33
2018-09-05T09:35:02.829Z,59.45
2018-09-05T09:37:31.818Z,60.07
2018-09-05T09:40:00.568Z,60.81
2018-09-05T09:42:29.297Z,59.71
2018-09-05T09:44:58.080Z,58.38
2018-09-05T09:47:27.569Z,55.91
2018-09-05T09:49:57.129Z,56.59
2018-09-05T09:52:25.840Z,56.19
2018-09-05T09:54:54.572Z,53.62
2018-09-05T09:57:23.349Z,53.28
2018-09-05T09:59:52.326Z,52.79
2018-09-05T10:02:26.323Z,53.33
2018-09-05T10:05:00.540Z,53.18
2018-09-05T10:07:34.712Z,52.22
2018-09-05T10:10:08.712Z,53.06
2018-09-05T10:12:47.336Z,52.11
2018-09-05T10:15:22.333Z,52.30
2018-09-05T10:17:56.186Z,53.50
2018-09-05T10:20:24.913Z,52.09
2018-09-05T10:22:54.040Z,52.36
2018-09-05T10:25:22.719Z,51.63
2018-09-05T10:27:51.791Z,50.42
2018-09-05T10:30:20.536Z,50.00
2018-09-05T10:32:49.577Z,50.47
2018-09-05T10:35:19.235Z,50.25
2018-09-05T10:37:48.421Z,49.34
2018-09-05T10:40:17.444Z,48.05
2018-09-05T10:42:46.937Z,46.86
2018-09-05T10:45:15.663Z,44.43
2018-09-05T10:47:44.619Z,45.57
2018-09-05T10:50:13.699Z,44.51
2018-09-05T10:52:42.431Z,42.88
2018-09-05T10:55:11.888Z,42.95
2018-09-05T10:57:40.631Z,42.47
2018-09-05T11:00:09.861Z,40.53
2018-09-05T11:02:38.638Z,39.63
2018-09-05T11:05:07.435Z,41.08
2018-09-05T11:07:36.203Z,41.44
2018-09-05T11:10:04.935Z,41.14
2018-09-05T11:12:34.024Z,38.32
2018-09-05T11:15:06.502Z,38.66
2018-09-05T11:17:35.673Z,39.20
2018-09-05T11:20:04.866Z,38.55
2018-09-05T11:22:33.825Z,36.76
2018-09-05T11:25:02.821Z,37.59
2018-09-05T11:27:31.694Z,37.99
2018-09-05T11:30:00.721Z,38.84
2018-09-05T11:32:29.490Z,37.84
2018-09-05T11:34:59.368Z,36.58
2018-09-05T11:37:28.726Z,35.53
2018-09-05T11:39:57.689Z,35.00
2018-09-05T11:42:26.405Z,35.03
2018-09-05T11:44:55.320Z,34.47
2018-09-05T11:47:24.062Z,33.08
2018-09-05T11:49:52.805Z,33.24
2018-09-05T11:52:22.442Z,32.94
2018-09-05T11:54:51.552Z,31.70
2018-09-05T11:57:20.624Z,32.28
2018-09-05T11:59:49.407Z,32.51
2018-09-05T12:02:18.828Z,30.34
2018-09-05T12:04:48.167Z,32.79
2018-09-05T12:07:16.998Z,32.08
2018-09-05T12:09:45.735Z,32.53
2018-09-05T12:12:14.623Z,33.43
2018-09-05T12:14:43.605Z,32.08
2018-09-05T12:17:13.041Z,33.60
2018-09-05T12:19:42.083Z,34.39
2018-09-05T12:22:10.845Z,33.83
2018-09-05T12:24:40.049Z,32.60
2018-09-05T12:27:09.336Z,30.38
2018-09-05T12:29:38.238Z,29.99
2018-09-05T12:32:07.330Z,28.85
2018-09-05T12:34:36.778Z,29.39
2018-09-05T12:37:05.781Z,30.33
2018-09-05T12:39:34.868Z,30.32
2018-09-05T12:42:03.808Z,30.24
2018-09-05T12:44:33.127Z,30.40
2018-09-05T12:47:02.109Z,29.58
2018-09-05T12:49:30.904Z,29.80
2018-09-05T12:51:59.614Z,30.30
2018-09-05T12:54:28.667Z,29.47
2018-09-05T12:56:57.730Z,28.40
2018-09-05T12:59:26.891Z,27.80
2018-09-05T13:01:56.050Z,27.14
2018-09-05T13:04:25.147Z,27.71
2018-09-05T13:06:54.496Z,28.34
2018-09-05T13:09:23.543Z,27.07
2018-09-05T13:11:52.594Z,26.76
2018-09-05T13:14:21.907Z,27.42
2018-09-05T13:16:52.182Z,27.02
2018-09-05T13:19:21.352Z,27.70
2018-09-05T13:21:50.544Z,26.41
2018-09-05T13:24:20.301Z,25.79
2018-09-05T13:26:49.337Z,25.99
2018-09-05T13:29:18.353Z,25.74
2018-09-05T13:31:47.321Z,26.08
2018-09-05T13:34:16.368Z,27.21
2018-09-05T13:36:45.493Z,25.69
2018-09-05T13:39:14.481Z,25.40
2018-09-05T13:41:43.458Z,25.77
2018-09-05T13:44:12.155Z,25.33
2018-09-05T13:46:41.208Z,25.27
2018-09-05T13:49:09.904Z,25.88
2018-09-05T13:51:39.024Z,25.86
2018-09-05T13:54:08.505Z,26.46
2018-09-05T13:56:37.640Z,25.98
2018-09-05T13:59:06.931Z,25.09
2018-09-05T14:01:36.011Z,25.60
2018-09-05T14:04:04.760Z,26.23
2018-09-05T14:06:33.812Z,27.73
2018-09-05T14:09:02.952Z,26.91
2018-09-05T14:11:31.680Z,26.70
2018-09-05T14:14:01.003Z,26.46
2018-09-05T14:16:29.722Z,26.79
2018-09-05T14:18:58.465Z,27.27
2018-09-05T14:21:27.417Z,27.70
2018-09-05T14:23:56.999Z,28.77
2018-09-05T14:26:25.783Z,27.61
2018-09-05T14:28:54.585Z,27.93
2018-09-05T14:31:23.824Z,28.62
2018-09-05T14:33:52.638Z,28.29
2018-09-05T14:36:21.392Z,28.70
2018-09-05T14:38:50.084Z,28.74
2018-09-05T14:41:19.032Z,28.38
2018-09-05T14:43:47.795Z,29.17
2018-09-05T14:46:17.080Z,29.85
2018-09-05T14:48:45.772Z,28.28
2018-09-05T14:51:14.736Z,29.09
2018-09-05T14:53:43.469Z,30.59
2018-09-05T14:56:12.160Z,29.84
2018-09-05T14:58:40.843Z,29.86
2018-09-05T15:01:09.947Z,30.18
2018-09-05T15:03:38.728Z,31.50
2018-09-05T15:06:07.954Z,32.53
2018-09-05T15:08:36.984Z,31.90
2018-09-05T15:11:05.990Z,31.44
2018-09-05T15:13:34.739Z,31.35
2018-09-05T15:16:03.430Z,31.56
2018-09-05T15:18:32.408Z,31.70
2018-09-05T15:21:01.439Z,32.58
2018-09-05T15:23:30.180Z,32.37
2018-09-05T15:25:59.014Z,33.34
2018-09-05T15:28:28.212Z,32.49
2018-09-05T15:30:56.931Z,32.69
2018-09-05T15:33:25.995Z,33.13
2018-09-05T15:35:55.283Z,33.24
2018-09-05T15:38:24.304Z,33.39
2018-09-05T15:40:53.069Z,34.27
2018-09-05T15:43:22.357Z,33.63
2018-09-05T15:45:51.619Z,34.35
2018-09-05T15:48:20.976Z,34.84
2018-09-05T15:50:49.654Z,35.47
2018-09-05T15:53:18.723Z,36.65
2018-09-05T15:55:48.415Z,37.66
2018-09-05T15:58:17.136Z,36.99
2018-09-05T16:00:46.180Z,37.02
2018-09-05T16:03:15.090Z,37.72
2018-09-05T16:05:44.224Z,36.24
2018-09-05T16:08:13.733Z,37.44
2018-09-05T16:10:42.490Z,37.14
2018-09-05T16:13:11.590Z,37.82
2018-09-05T16:15:40.833Z,38.20
2018-09-05T16:18:09.990Z,39.30
2018-09-05T16:20:38.730Z,39.08
2018-09-05T16:23:08.337Z,39.75
2018-09-05T16:25:37.646Z,40.49
2018-09-05T16:28:06.393Z,40.93
2018-09-05T16:30:35.149Z,40.34
2018-09-05T16:33:04.929Z,40.65
2018-09-05T16:35:33.670Z,40.84
2018-09-05T16:38:02.668Z,41.60
2018-09-05T16:40:31.414Z,41.51
2018-09-05T16:43:00.421Z,42.22
2018-09-05T16:45:29.415Z,42.47
2018-09-05T16:47:58.701Z,43.09
2018-09-05T16:50:27.411Z,42.48
2018-09-05T16:52:56.198Z,42.76
2018-09-05T16:55:24.934Z,43.18
2018-09-05T16:57:54.177Z,43.67
2018-09-05T17:00:22.850Z,43.26
2018-09-05T17:02:51.591Z,43.27
2018-09-05T17:05:20.603Z,43.71
2018-09-05T17:07:49.324Z,43.13
2018-09-05T17:10:18.681Z,44.27
2018-09-05T17:12:47.782Z,44.15
2018-09-05T17:15:16.838Z,44.99
2018-09-05T17:17:45.901Z,45.06
2018-09-05T17:20:14.855Z,44.63
2018-09-05T17:22:43.945Z,45.27
2018-09-05T17:25:15.788Z,45.69
2018-09-05T17:27:44.814Z,45.16
2018-09-05T17:30:13.765Z,45.35
2018-09-05T17:32:42.546Z,45.88
2018-09-05T17:35:11.724Z,46.57
2018-09-05T17:37:40.715Z,46.90
2018-09-05T17:40:09.499Z,46.65
2018-09-05T17:42:38.198Z,47.42
2018-09-05T17:45:07.202Z,47.37
2018-09-05T17:47:35.895Z,48.54
2018-09-05T17:50:04.591Z,48.04
2018-09-05T17:52:33.706Z,48.17
2018-09-05T17:55:02.407Z,49.56
2018-09-05T17:57:31.140Z,50.03
2018-09-05T18:00:00.676Z,50.53
2018-09-05T18:02:29.359Z,51.28
2018-09-05T18:04:58.443Z,51.61
2018-09-05T18:07:27.474Z,52.03
2018-09-05T18:09:56.268Z,53.17
2018-09-05T18:12:24.984Z,53.26
2018-09-05T18:14:53.850Z,54.43
2018-09-05T18:17:22.559Z,53.83
2018-09-05T18:19:51.776Z,54.71
2018-09-05T18:22:20.746Z,55.13
2018-09-05T18:24:49.786Z,55.16
2018-09-05T18:27:18.792Z,55.81
2018-09-05T18:29:47.808Z,55.15
2018-09-05T18:32:17.117Z,55.87
2018-09-05T18:34:46.098Z,56.01
2018-09-05T18:37:14.819Z,56.02
2018-09-05T18:39:43.594Z,55.66
2018-09-05T18:42:12.326Z,55.47
2018-09-05T18:44:41.836Z,55.87
2018-09-05T18:47:10.588Z,56.66
2018-09-05T18:49:39.283Z,56.56
2018-09-05T18:52:07.999Z,56.74
2018-09-05T18:54:37.536Z,56.00
2018-09-05T18:57:08.452Z,56.30
2018-09-05T18:59:37.532Z,56.66
2018-09-05T19:02:06.548Z,56.86
2018-09-05T19:04:35.554Z,56.61
2018-09-05T19:07:04.281Z,57.25
2018-09-05T19:09:33.088Z,57.28
2018-09-05T19:12:02.270Z,57.34
2018-09-05T19:14:30.974Z,57.10
2018-09-05T19:16:59.680Z,58.04
2018-09-05T19:19:28.450Z,58.44
2018-09-05T19:21:57.170Z,58.33
2018-09-05T19:24:26.230Z,58.86
2018-09-05T19:26:55.205Z,58.89
2018-09-05T19:29:23.937Z,58.93
2018-09-05T19:31:52.744Z,58.72
2018-09-05T19:34:22.141Z,59.63
2018-09-05T19:36:50.900Z,59.57
2018-09-05T19:39:20.143Z,59.67
2018-09-05T19:41:48.967Z,59.39
2018-09-05T19:44:18.022Z,60.05
2018-09-05T19:46:47.107Z,60.00
2018-09-05T19:49:16.231Z,59.81
2018-09-05T19:51:44.874Z,60.49
2018-09-05T19:54:13.633Z,60.42
2018-09-05T19:56:42.347Z,60.77
2018-09-05T19:59:11.091Z,60.88
2018-09-05T20:01:40.089Z,61.48
2018-09-05T20:04:09.052Z,62.07
2018-09-05T20:06:38.092Z,61.96
2018-09-05T20:09:07.756Z,62.31
2018-09-05T20:11:36.627Z,62.86
2018-09-05T20:14:05.649Z,63.13
2018-09-05T20:16:34.651Z,62.91
2018-09-05T20:19:03.896Z,63.63
2018-09-05T20:21:33.754Z,63.73
2018-09-05T20:24:02.954Z,63.40
2018-09-05T20:26:31.728Z,63.89
2018-09-05T20:29:00.514Z,64.03
2018-09-05T20:31:29.341Z,64.08
2018-09-05T20:33:58.802Z,63.91
2018-09-05T20:36:28.539Z,64.54
2018-09-05T20:38:57.270Z,64.42
2018-09-05T20:41:26.367Z,64.51
2018-09-05T20:43:55.477Z,64.92
2018-09-05T20:46:24.434Z,64.61
2018-09-05T20:48:53.219Z,65.34
2018-09-05T20:51:22.777Z,65.37
2018-09-05T20:53:51.575Z,65.78
2018-09-05T20:56:20.321Z,65.32
2018-09-05T20:58:49.560Z,65.23
2018-09-05T21:01:18.659Z,65.93
2018-09-05T21:03:47.916Z,66.32
2018-09-05T21:06:17.190Z,66.09
2018-09-05T21:08:52.498Z,66.30
2018-09-05T21:11:21.567Z,66.27
2018-09-05T21:13:50.451Z,66.37
2018-09-05T21:16:19.808Z,66.50
2018-09-05T21:18:49.133Z,66.75
2018-09-05T21:21:17.940Z,67.47
2018-09-05T21:23:46.680Z,67.12
2018-09-05T21:26:15.750Z,67.93
2018-09-05T21:28:44.514Z,67.99
2018-09-05T21:31:13.928Z,68.29
2018-09-05T21:33:42.718Z,68.35
2018-09-05T21:36:11.709Z,68.10
2018-09-05T21:38:40.457Z,68.53
2018-09-05T21:41:09.247Z,68.19
2018-09-05T21:43:38.048Z,69.12
2018-09-05T21:46:07.458Z,68.69
2018-09-05T21:48:36.202Z,69.58
2018-09-05T21:51:04.994Z,69.72
2018-09-05T21:53:33.972Z,69.23
2018-09-05T21:56:03.257Z,69.64
2018-09-05T21:58:35.015Z,69.61
2018-09-05T22:01:04.344Z,70.06
2018-09-05T22:03:33.128Z,70.48
2018-09-05T22:06:08.124Z,70.53
2018-09-05T22:08:37.260Z,70.69
2018-09-05T22:11:11.234Z,70.11
2018-09-05T22:13:40.019Z,70.53
2018-09-05T22:16:09.063Z,70.88
2018-09-05T22:18:38.768Z,70.49
2018-09-05T22:21:07.672Z,70.87
2018-09-05T22:23:36.684Z,70.65
2018-09-05T22:26:05.486Z,70.57
2018-09-05T22:28:34.891Z,70.92
2018-09-05T22:31:03.906Z,71.33
2018-09-05T22:33:33.491Z,71.17
2018-09-05T22:36:02.758Z,71.46
2018-09-05T22:38:31.547Z,71.39
2018-09-05T22:41:00.289Z,71.53
2018-09-05T22:43:40.463Z,71.69
2018-09-05T22:46:20.845Z,72.02
2018-09-05T22:49:01.155Z,72.06
2018-09-05T22:52:13.347Z,72.37
2018-09-05T22:56:59.660Z,72.16
2018-09-05T23:00:22.151Z,72.55
2018-09-05T23:03:59.311Z,73.20
2018-09-05T23:08:40.829Z,73.31
2018-09-05T23:11:56.183Z,73.97
2018-09-05T23:14:36.743Z,73.95
2018-09-05T23:17:16.594Z,74.21
2018-09-05T23:20:17.156Z,74.67
2018-09-05T23:22:57.338Z,74.87
2018-09-05T23:25:26.157Z,74.97
2018-09-05T23:27:55.289Z,75.23
2018-09-05T23:30:24.048Z,75.96
2018-09-05T23:32:52.857Z,76.47
2018-09-05T23:35:21.824Z,76.53
2018-09-05T23:37:50.626Z,76.73
2018-09-05T23:40:19.365Z,76.65
2018-09-05T23:42:48.118Z,77.27
2018-09-05T23:45:16.884Z,77.64
2018-09-05T23:47:45.613Z,77.88
2018-09-05T23:50:14.389Z,78.45
2018-09-05T23:52:43.445Z,78.37
2018-09-05T23:55:13.033Z,78.55
2018-09-05T23:57:42.753Z,78.83
